createdAt,value
2023-05-02T00:00:34.639Z,0.00
2023-05-02T00:01:34.607Z,0.00
2023-05-02T00:02:34.731Z,0.00
2023-05-02T00:03:34.746Z,0.00
2023-05-02T00:04:34.802Z,0.00
2023-05-02T00:05:34.603Z,0.00
2023-05-02T00:06:34.651Z,0.00
2023-05-02T00:07:34.545Z,0.00
2023-05-02T00:08:34.613Z,0.00
2023-05-02T00:09:34.567Z,0.00
2023-05-02T00:10:34.537Z,0.00
2023-05-02T00:11:34.502Z,0.00
2023-05-02T00:12:34.527Z,0.00
2023-05-02T00:13:34.511Z,0.00
2023-05-02T00:14:34.495Z,0.00
2023-05-02T00:15:34.465Z,0.00
2023-05-02T00:16:34.516Z,0.00
2023-05-02T00:17:34.504Z,0.00
2023-05-02T00:18:34.461Z,0.00
2023-05-02T00:19:34.424Z,0.00
2023-05-02T00:20:34.425Z,0.00
2023-05-02T00:21:34.430Z,0.00
2023-05-02T00:22:34.411Z,0.00
2023-05-02T00:23:34.373Z,0.00
2023-05-02T00:24:34.387Z,0.00
2023-05-02T00:25:34.353Z,0.00
2023-05-02T00:26:34.414Z,0.00
2023-05-02T00:27:34.343Z,0.00
2023-05-02T00:28:34.396Z,0.00
2023-05-02T00:29:34.309Z,0.00
2023-05-02T00:30:34.331Z,0.00
2023-05-02T00:31:34.374Z,0.00
2023-05-02T00:32:34.343Z,0.00
2023-05-02T00:33:34.300Z,0.00
2023-05-02T00:34:34.299Z,0.00
2023-05-02T00:35:34.242Z,0.00
2023-05-02T00:36:34.261Z,0.00
2023-05-02T00:37:34.232Z,0.00
2023-05-02T00:38:34.278Z,0.00
2023-05-02T00:39:34.206Z,0.00
2023-05-02T00:40:34.218Z,0.00
2023-05-02T00:41:34.183Z,0.00
2023-05-02T00:42:34.196Z,0.00
2023-05-02T00:43:34.170Z,0.00
2023-05-02T00:44:34.208Z,0.00
2023-05-02T00:45:34.145Z,0.00
2023-05-02T00:46:34.204Z,0.00
2023-05-02T00:47:34.436Z,0.00
2023-05-02T00:48:34.156Z,0.00
2023-05-02T00:49:34.105Z,0.00
2023-05-02T00:50:34.126Z,0.00
2023-05-02T00:51:34.088Z,0.00
2023-05-02T00:52:34.564Z,0.00
2023-05-02T00:53:34.102Z,0.00
2023-05-02T00:54:34.088Z,0.00
2023-05-02T00:55:34.047Z,0.00
2023-05-02T00:56:34.065Z,0.00
2023-05-02T00:57:34.030Z,0.00
2023-05-02T00:58:34.073Z,0.00
2023-05-02T00:59:34.004Z,0.00
2023-05-02T01:00:34.013Z,0.00
2023-05-02T01:01:34.062Z,0.00
2023-05-02T01:02:34.182Z,0.00
2023-05-02T01:03:34.095Z,0.00
2023-05-02T01:04:33.971Z,0.00
2023-05-02T01:05:33.981Z,0.00
2023-05-02T01:06:34.079Z,0.00
2023-05-02T01:07:33.920Z,0.00
2023-05-02T01:08:33.935Z,0.00
2023-05-02T01:09:33.926Z,0.00
2023-05-02T01:10:33.916Z,0.00
2023-05-02T01:11:33.901Z,0.00
2023-05-02T01:12:33.881Z,0.00
2023-05-02T01:13:33.879Z,0.00
2023-05-02T01:14:33.889Z,0.00
2023-05-02T01:15:33.829Z,0.00
2023-05-02T01:16:33.948Z,0.00
2023-05-02T01:17:33.829Z,0.00
2023-05-02T01:18:33.837Z,0.00
2023-05-02T01:19:33.786Z,0.00
2023-05-02T01:20:33.811Z,0.00
2023-05-02T01:21:33.811Z,0.00
2023-05-02T01:22:33.821Z,0.00
2023-05-02T01:23:33.742Z,0.00
2023-05-02T01:24:33.804Z,0.00
2023-05-02T01:25:33.741Z,0.00
2023-05-02T01:26:33.769Z,0.00
2023-05-02T01:27:33.712Z,0.00
2023-05-02T01:28:33.715Z,0.00
2023-05-02T01:29:33.684Z,0.00
2023-05-02T01:30:33.688Z,0.00
2023-05-02T01:31:33.732Z,0.00
2023-05-02T01:32:33.746Z,0.00
2023-05-02T01:33:33.649Z,0.00
2023-05-02T01:34:33.662Z,0.00
2023-05-02T01:35:33.619Z,0.00
2023-05-02T01:36:33.660Z,0.00
2023-05-02T01:37:33.651Z,0.00
2023-05-02T01:38:33.621Z,0.00
2023-05-02T01:39:33.584Z,0.00
2023-05-02T01:40:33.606Z,0.00
2023-05-02T01:41:33.561Z,0.00
2023-05-02T01:42:33.599Z,0.00
2023-05-02T01:43:33.531Z,0.00
2023-05-02T01:44:33.572Z,0.00
2023-05-02T01:45:33.551Z,0.00
2023-05-02T01:46:33.602Z,0.00
2023-05-02T01:47:33.622Z,0.00
2023-05-02T01:48:33.510Z,0.00
2023-05-02T01:49:33.483Z,0.00
2023-05-02T01:50:33.509Z,0.00
2023-05-02T01:51:33.458Z,0.00
2023-05-02T01:52:33.508Z,0.00
2023-05-02T01:53:33.452Z,0.00
2023-05-02T01:54:33.461Z,0.00
2023-05-02T01:55:33.440Z,0.00
2023-05-02T01:56:33.436Z,0.00
2023-05-02T01:57:33.434Z,0.00
2023-05-02T01:58:33.444Z,0.00
2023-05-02T01:59:33.395Z,0.00
2023-05-02T02:00:33.409Z,0.00
2023-05-02T02:01:33.410Z,0.00
2023-05-02T02:02:33.365Z,0.00
2023-05-02T02:03:33.391Z,0.00
2023-05-02T02:04:33.413Z,0.00
2023-05-02T02:05:33.318Z,0.00
2023-05-02T02:06:33.339Z,0.00
2023-05-02T02:07:33.300Z,0.00
2023-05-02T02:08:33.366Z,0.00
2023-05-02T02:09:33.273Z,0.00
2023-05-02T02:10:33.297Z,0.00
2023-05-02T02:11:33.286Z,0.00
2023-05-02T02:12:33.268Z,0.00
2023-05-02T02:13:33.292Z,0.00
2023-05-02T02:14:33.281Z,0.00
2023-05-02T02:15:33.235Z,0.00
2023-05-02T02:16:33.300Z,0.00
2023-05-02T02:17:33.203Z,0.00
2023-05-02T02:18:33.210Z,0.00
2023-05-02T02:19:33.184Z,0.00
2023-05-02T02:20:33.227Z,0.00
2023-05-02T02:21:33.162Z,0.00
2023-05-02T02:22:33.159Z,0.00
2023-05-02T02:23:33.133Z,0.00
2023-05-02T02:24:33.138Z,0.00
2023-05-02T02:25:33.123Z,0.00
2023-05-02T02:26:33.120Z,0.00
2023-05-02T02:27:33.116Z,0.00
2023-05-02T02:28:33.102Z,0.00
2023-05-02T02:29:33.073Z,0.00
2023-05-02T02:30:33.108Z,0.00
2023-05-02T02:31:33.093Z,0.00
2023-05-02T02:32:33.129Z,0.00
2023-05-02T02:33:33.021Z,0.00
2023-05-02T02:34:33.053Z,0.00
2023-05-02T02:35:33.002Z,0.00
2023-05-02T02:36:33.052Z,0.00
2023-05-02T02:37:33.014Z,0.00
2023-05-02T02:38:33.006Z,0.00
2023-05-02T02:39:32.972Z,0.00
2023-05-02T02:40:32.967Z,0.00
2023-05-02T02:41:32.957Z,0.00
2023-05-02T02:42:32.973Z,0.00
2023-05-02T02:43:32.916Z,0.00
2023-05-02T02:44:32.931Z,0.00
2023-05-02T02:45:32.893Z,0.00
2023-05-02T02:46:32.941Z,0.00
2023-05-02T02:47:32.944Z,0.00
2023-05-02T02:48:32.900Z,0.00
2023-05-02T02:49:32.960Z,0.00
2023-05-02T02:50:32.867Z,0.00
2023-05-02T02:51:32.836Z,0.00
2023-05-02T02:52:32.848Z,0.00
2023-05-02T02:53:32.810Z,0.00
2023-05-02T02:54:33.240Z,0.00
2023-05-02T02:55:32.803Z,0.00
2023-05-02T02:56:32.818Z,0.00
2023-05-02T02:57:32.778Z,0.00
2023-05-02T02:58:32.786Z,0.00
2023-05-02T02:59:32.768Z,0.00
2023-05-02T03:00:32.781Z,0.00
2023-05-02T03:01:32.801Z,0.00
2023-05-02T03:02:32.816Z,0.00
2023-05-02T03:03:32.766Z,0.00
2023-05-02T03:04:32.804Z,0.00
2023-05-02T03:05:32.685Z,0.00
2023-05-02T03:06:32.732Z,0.00
2023-05-02T03:07:32.716Z,0.00
2023-05-02T03:08:32.690Z,0.00
2023-05-02T03:09:32.671Z,0.00
2023-05-02T03:10:32.664Z,0.00
2023-05-02T03:11:32.656Z,0.00
2023-05-02T03:12:32.662Z,0.00
2023-05-02T03:13:32.603Z,0.00
2023-05-02T03:14:32.650Z,0.00
2023-05-02T03:15:32.582Z,0.00
2023-05-02T03:16:32.719Z,0.00
2023-05-02T03:17:32.632Z,0.00
2023-05-02T03:18:32.631Z,0.00
2023-05-02T03:19:32.535Z,0.00
2023-05-02T03:20:32.551Z,0.00
2023-05-02T03:21:32.554Z,0.00
2023-05-02T03:22:32.598Z,0.00
2023-05-02T03:23:32.533Z,0.00
2023-05-02T03:24:32.542Z,0.00
2023-05-02T03:25:32.492Z,0.00
2023-05-02T03:26:32.490Z,0.00
2023-05-02T03:27:32.489Z,0.00
2023-05-02T03:28:32.473Z,0.00
2023-05-02T03:29:32.474Z,0.00
2023-05-02T03:30:32.477Z,0.00
2023-05-02T03:31:37.665Z,1.00
2023-05-02T03:32:32.430Z,1.00
2023-05-02T03:33:32.339Z,1.00
2023-05-02T03:34:32.351Z,1.00
2023-05-02T03:35:32.314Z,1.00
2023-05-02T03:36:32.333Z,1.00
2023-05-02T03:37:32.327Z,2.00
2023-05-02T03:38:32.321Z,2.00
2023-05-02T03:39:32.290Z,2.00
2023-05-02T03:40:32.286Z,2.00
2023-05-02T03:41:32.255Z,2.00
2023-05-02T03:42:32.292Z,1.00
2023-05-02T03:43:32.249Z,1.00
2023-05-02T03:44:32.256Z,1.00
2023-05-02T03:45:32.222Z,1.00
2023-05-02T03:46:32.245Z,1.00
2023-05-02T03:47:32.257Z,3.00
2023-05-02T03:48:32.214Z,2.00
2023-05-02T03:49:32.209Z,2.00
2023-05-02T03:50:32.179Z,2.00
2023-05-02T03:51:32.185Z,2.00
2023-05-02T03:52:32.167Z,3.00
2023-05-02T03:53:32.172Z,5.00
2023-05-02T03:54:32.378Z,5.00
2023-05-02T03:55:32.175Z,4.00
2023-05-02T03:56:32.104Z,4.00
2023-05-02T03:57:32.128Z,6.00
2023-05-02T03:58:32.096Z,6.00
2023-05-02T03:59:32.140Z,9.00
2023-05-02T04:00:32.084Z,9.00
2023-05-02T04:01:32.078Z,7.00
2023-05-02T04:02:32.168Z,2.00
2023-05-02T04:03:32.149Z,4.00
2023-05-02T04:04:32.111Z,9.00
2023-05-02T04:05:32.038Z,9.00
2023-05-02T04:06:32.137Z,7.00
2023-05-02T04:07:32.017Z,5.00
2023-05-02T04:08:31.983Z,3.00
2023-05-02T04:09:32.032Z,4.00
2023-05-02T04:10:31.959Z,5.00
2023-05-02T04:11:31.990Z,7.00
2023-05-02T04:12:31.968Z,7.00
2023-05-02T04:13:31.951Z,7.00
2023-05-02T04:14:31.936Z,5.00
2023-05-02T04:15:31.940Z,10.00
2023-05-02T04:16:31.948Z,9.00
2023-05-02T04:17:32.022Z,10.00
2023-05-02T04:18:31.880Z,11.00
2023-05-02T04:19:31.891Z,13.00
2023-05-02T04:20:31.868Z,13.00
2023-05-02T04:21:31.895Z,10.00
2023-05-02T04:22:31.834Z,9.00
2023-05-02T04:23:31.848Z,6.00
2023-05-02T04:24:32.414Z,9.00
2023-05-02T04:25:31.836Z,9.00
2023-05-02T04:26:31.820Z,14.00
2023-05-02T04:27:31.798Z,13.00
2023-05-02T04:28:31.793Z,15.00
2023-05-02T04:29:31.820Z,16.00
2023-05-02T04:30:46.448Z,14.00
2023-05-02T04:31:31.873Z,14.00
2023-05-02T04:32:31.772Z,12.00
2023-05-02T04:33:31.763Z,13.00
2023-05-02T04:34:31.713Z,12.00
2023-05-02T04:35:31.796Z,11.00
2023-05-02T04:36:31.694Z,13.00
2023-05-02T04:37:31.715Z,14.00
2023-05-02T04:38:31.698Z,17.00
2023-05-02T04:39:31.680Z,11.00
2023-05-02T04:40:31.645Z,16.00
2023-05-02T04:41:46.442Z,22.00
2023-05-02T04:42:31.624Z,20.00
2023-05-02T04:43:31.666Z,21.00
2023-05-02T04:44:31.606Z,25.00
2023-05-02T04:45:31.626Z,28.00
2023-05-02T04:46:31.635Z,29.00
2023-05-02T04:47:31.614Z,27.00
2023-05-02T04:48:31.555Z,33.00
2023-05-02T04:49:31.612Z,30.00
2023-05-02T04:50:31.542Z,27.00
2023-05-02T04:51:31.572Z,32.00
2023-05-02T04:52:31.513Z,33.00
2023-05-02T04:53:31.527Z,39.00
2023-05-02T04:54:31.519Z,31.00
2023-05-02T04:55:31.528Z,32.00
2023-05-02T04:56:31.484Z,39.00
2023-05-02T04:57:31.524Z,51.00
2023-05-02T04:58:31.471Z,72.00
2023-05-02T04:59:31.487Z,85.00
2023-05-02T05:00:31.437Z,94.00
2023-05-02T05:01:31.486Z,98.00
2023-05-02T05:02:31.489Z,106.00
2023-05-02T05:03:31.583Z,103.00
2023-05-02T05:04:31.393Z,127.00
2023-05-02T05:05:31.472Z,136.00
2023-05-02T05:06:31.419Z,145.00
2023-05-02T05:07:37.571Z,156.00
2023-05-02T05:08:31.357Z,152.00
2023-05-02T05:09:31.394Z,140.00
2023-05-02T05:10:31.335Z,108.00
2023-05-02T05:11:31.345Z,81.00
2023-05-02T05:12:31.346Z,69.00
2023-05-02T05:13:31.340Z,65.00
2023-05-02T05:14:31.291Z,68.00
2023-05-02T05:15:31.308Z,77.00
2023-05-02T05:16:31.361Z,85.00
2023-05-02T05:17:31.318Z,85.00
2023-05-02T05:18:31.268Z,79.00
2023-05-02T05:19:31.256Z,85.00
2023-05-02T05:20:31.623Z,97.00
2023-05-02T05:21:31.241Z,108.00
2023-05-02T05:22:31.218Z,108.00
2023-05-02T05:23:31.246Z,112.00
2023-05-02T05:24:31.194Z,94.00
2023-05-02T05:25:31.301Z,98.00
2023-05-02T05:26:31.182Z,90.00
2023-05-02T05:27:31.189Z,86.00
2023-05-02T05:28:31.168Z,84.00
2023-05-02T05:29:31.157Z,92.00
2023-05-02T05:30:31.142Z,82.00
2023-05-02T05:31:31.154Z,74.00
2023-05-02T05:32:31.143Z,66.00
2023-05-02T05:33:31.419Z,56.00
2023-05-02T05:34:31.101Z,60.00
2023-05-02T05:35:31.099Z,74.00
2023-05-02T05:36:31.064Z,68.00
2023-05-02T05:37:31.469Z,75.00
2023-05-02T05:38:31.046Z,90.00
2023-05-02T05:39:31.061Z,120.00
2023-05-02T05:40:31.029Z,131.00
2023-05-02T05:41:31.764Z,112.00
2023-05-02T05:42:31.635Z,98.00
2023-05-02T05:43:31.008Z,151.00
2023-05-02T05:44:31.064Z,177.00
2023-05-02T05:45:30.998Z,190.00
2023-05-02T05:46:31.107Z,196.00
2023-05-02T05:47:31.077Z,182.00
2023-05-02T05:48:30.986Z,170.00
2023-05-02T05:49:30.973Z,214.00
2023-05-02T05:50:30.924Z,250.00
2023-05-02T05:51:30.959Z,272.00
2023-05-02T05:52:30.902Z,265.00
2023-05-02T05:53:30.911Z,271.00
2023-05-02T05:54:30.875Z,211.00
2023-05-02T05:55:30.910Z,193.00
2023-05-02T05:56:30.869Z,178.00
2023-05-02T05:57:30.875Z,191.00
2023-05-02T05:58:30.840Z,208.00
2023-05-02T05:59:30.878Z,232.00
2023-05-02T06:00:30.834Z,298.00
2023-05-02T06:01:30.833Z,328.00
2023-05-02T06:02:30.864Z,309.00
2023-05-02T06:03:30.974Z,294.00
2023-05-02T06:04:30.819Z,288.00
2023-05-02T06:05:30.793Z,311.00
2023-05-02T06:06:30.860Z,351.00
2023-05-02T06:07:30.771Z,378.00
2023-05-02T06:08:30.740Z,361.00
2023-05-02T06:09:30.788Z,284.00
2023-05-02T06:10:30.709Z,216.00
2023-05-02T06:11:30.754Z,183.00
2023-05-02T06:12:30.693Z,196.00
2023-05-02T06:13:30.724Z,199.00
2023-05-02T06:14:30.679Z,179.00
2023-05-02T06:15:30.700Z,159.00
2023-05-02T06:16:30.701Z,147.00
2023-05-02T06:17:30.716Z,145.00
2023-05-02T06:18:30.636Z,151.00
2023-05-02T06:19:30.636Z,145.00
2023-05-02T06:20:30.616Z,164.00
2023-05-02T06:21:30.676Z,162.00
2023-05-02T06:22:30.584Z,171.00
2023-05-02T06:23:30.612Z,146.00
2023-05-02T06:24:30.569Z,155.00
2023-05-02T06:25:30.588Z,171.00
2023-05-02T06:26:41.592Z,165.00
2023-05-02T06:27:32.952Z,175.00
2023-05-02T06:28:30.522Z,161.00
2023-05-02T06:29:30.535Z,132.00
2023-05-02T06:30:30.518Z,125.00
2023-05-02T06:31:30.568Z,152.00
2023-05-02T06:32:30.526Z,145.00
2023-05-02T06:33:30.503Z,150.00
2023-05-02T06:34:30.470Z,153.00
2023-05-02T06:35:45.475Z,162.00
2023-05-02T06:36:30.462Z,187.00
2023-05-02T06:37:30.451Z,185.00
2023-05-02T06:38:30.416Z,187.00
2023-05-02T06:39:30.488Z,199.00
2023-05-02T06:40:30.389Z,200.00
2023-05-02T06:41:30.441Z,179.00
2023-05-02T06:42:30.396Z,166.00
2023-05-02T06:43:30.390Z,160.00
2023-05-02T06:44:30.361Z,168.00
2023-05-02T06:45:30.420Z,155.00
2023-05-02T06:46:30.374Z,136.00
2023-05-02T06:47:30.411Z,141.00
2023-05-02T06:48:30.310Z,144.00
2023-05-02T06:49:30.329Z,146.00
2023-05-02T06:50:30.320Z,138.00
2023-05-02T06:51:30.325Z,132.00
2023-05-02T06:52:30.272Z,140.00
2023-05-02T06:53:32.424Z,129.00
2023-05-02T06:54:30.270Z,115.00
2023-05-02T06:55:30.259Z,132.00
2023-05-02T06:56:30.229Z,129.00
2023-05-02T06:57:30.286Z,146.00
2023-05-02T06:58:30.212Z,151.00
2023-05-02T06:59:30.250Z,180.00
2023-05-02T07:00:30.192Z,230.00
2023-05-02T07:01:30.301Z,272.00
2023-05-02T07:02:30.227Z,257.00
2023-05-02T07:03:30.200Z,236.00
2023-05-02T07:04:30.178Z,232.00
2023-05-02T07:05:30.163Z,215.00
2023-05-02T07:06:30.152Z,299.00
2023-05-02T07:07:30.179Z,429.00
2023-05-02T07:08:30.126Z,513.00
2023-05-02T07:09:30.131Z,616.00
2023-05-02T07:10:30.101Z,621.00
2023-05-02T07:11:30.115Z,684.00
2023-05-02T07:12:30.127Z,783.00
2023-05-02T07:13:30.080Z,647.00
2023-05-02T07:14:30.037Z,588.00
2023-05-02T07:15:30.069Z,553.00
2023-05-02T07:16:30.094Z,491.00
2023-05-02T07:17:30.057Z,547.00
2023-05-02T07:18:30.067Z,642.00
2023-05-02T07:19:30.018Z,599.00
2023-05-02T07:20:30.017Z,571.00
2023-05-02T07:21:30.006Z,522.00
2023-05-02T07:22:29.979Z,504.00
2023-05-02T07:23:30.026Z,537.00
2023-05-02T07:24:29.956Z,576.00
2023-05-02T07:25:29.953Z,649.00
2023-05-02T07:26:29.928Z,663.00
2023-05-02T07:27:36.500Z,771.00
2023-05-02T07:28:29.918Z,776.00
2023-05-02T07:29:29.943Z,840.00
2023-05-02T07:30:29.885Z,824.00
2023-05-02T07:31:29.915Z,815.00
2023-05-02T07:32:29.993Z,1004.00
2023-05-02T07:33:29.879Z,859.00
2023-05-02T07:34:29.889Z,918.00
2023-05-02T07:35:29.850Z,970.00
2023-05-02T07:36:29.816Z,863.00
2023-05-02T07:37:29.828Z,784.00
2023-05-02T07:38:29.804Z,718.00
2023-05-02T07:39:29.845Z,713.00
2023-05-02T07:40:29.894Z,823.00
2023-05-02T07:41:29.818Z,875.00
2023-05-02T07:42:29.758Z,891.00
2023-05-02T07:43:29.781Z,840.00
2023-05-02T07:44:29.724Z,881.00
2023-05-02T07:45:29.788Z,946.00
2023-05-02T07:46:29.810Z,986.00
2023-05-02T07:47:29.764Z,1059.00
2023-05-02T07:48:29.698Z,1030.00
2023-05-02T07:49:29.709Z,1050.00
2023-05-02T07:50:29.684Z,1065.00
2023-05-02T07:51:29.714Z,1026.00
2023-05-02T07:52:29.701Z,1046.00
2023-05-02T07:53:29.687Z,950.00
2023-05-02T07:54:29.665Z,902.00
2023-05-02T07:55:29.652Z,906.00
2023-05-02T07:56:29.618Z,851.00
2023-05-02T07:57:29.664Z,879.00
2023-05-02T07:58:29.615Z,914.00
2023-05-02T07:59:29.606Z,855.00
2023-05-02T08:00:29.599Z,833.00
2023-05-02T08:01:29.583Z,849.00
2023-05-02T08:02:29.740Z,879.00
2023-05-02T08:03:29.773Z,902.00
2023-05-02T08:04:29.658Z,881.00
2023-05-02T08:05:29.519Z,925.00
2023-05-02T08:06:29.619Z,944.00
2023-05-02T08:07:29.505Z,998.00
2023-05-02T08:08:29.515Z,1012.00
2023-05-02T08:09:29.505Z,965.00
2023-05-02T08:10:29.556Z,982.00
2023-05-02T08:11:29.455Z,964.00
2023-05-02T08:12:29.482Z,900.00
2023-05-02T08:13:29.444Z,854.00
2023-05-02T08:14:29.476Z,818.00
2023-05-02T08:15:29.411Z,801.00
2023-05-02T08:16:29.499Z,774.00
2023-05-02T08:17:29.419Z,787.00
2023-05-02T08:18:29.522Z,835.00
2023-05-02T08:19:29.379Z,816.00
2023-05-02T08:20:29.463Z,874.00
2023-05-02T08:21:29.364Z,899.00
2023-05-02T08:22:29.383Z,886.00
2023-05-02T08:23:29.363Z,885.00
2023-05-02T08:24:29.369Z,996.00
2023-05-02T08:25:29.408Z,1067.00
2023-05-02T08:26:29.326Z,1131.00
2023-05-02T08:27:29.487Z,1225.00
2023-05-02T08:28:29.308Z,1217.00
2023-05-02T08:29:29.299Z,1131.00
2023-05-02T08:30:29.308Z,1068.00
2023-05-02T08:31:29.286Z,1033.00
2023-05-02T08:32:29.295Z,973.00
2023-05-02T08:33:29.255Z,913.00
2023-05-02T08:34:29.279Z,767.00
2023-05-02T08:35:29.222Z,674.00
2023-05-02T08:36:29.239Z,548.00
2023-05-02T08:37:29.180Z,477.00
2023-05-02T08:38:29.246Z,433.00
2023-05-02T08:39:29.216Z,420.00
2023-05-02T08:40:41.008Z,396.00
2023-05-02T08:41:31.984Z,400.00
2023-05-02T08:42:29.205Z,413.00
2023-05-02T08:43:29.153Z,405.00
2023-05-02T08:44:29.160Z,409.00
2023-05-02T08:45:29.111Z,399.00
2023-05-02T08:46:29.202Z,427.00
2023-05-02T08:47:29.134Z,419.00
2023-05-02T08:48:29.144Z,424.00
2023-05-02T08:49:29.054Z,473.00
2023-05-02T08:50:29.080Z,521.00
2023-05-02T08:51:29.568Z,583.00
2023-05-02T08:52:29.060Z,619.00
2023-05-02T08:53:29.029Z,691.00
2023-05-02T08:54:29.086Z,691.00
2023-05-02T08:55:28.998Z,535.00
2023-05-02T08:56:29.029Z,413.00
2023-05-02T08:57:28.983Z,346.00
2023-05-02T08:58:29.014Z,390.00
2023-05-02T08:59:28.963Z,471.00
2023-05-02T09:00:28.988Z,549.00
2023-05-02T09:01:29.016Z,515.00
2023-05-02T09:02:29.046Z,470.00
2023-05-02T09:03:28.928Z,429.00
2023-05-02T09:04:28.958Z,352.00
2023-05-02T09:05:28.898Z,411.00
2023-05-02T09:06:28.924Z,548.00
2023-05-02T09:07:29.155Z,576.00
2023-05-02T09:08:28.888Z,544.00
2023-05-02T09:09:28.857Z,550.00
2023-05-02T09:10:29.006Z,552.00
2023-05-02T09:11:28.836Z,549.00
2023-05-02T09:12:28.854Z,470.00
2023-05-02T09:13:28.850Z,521.00
2023-05-02T09:14:28.863Z,543.00
2023-05-02T09:15:28.823Z,610.00
2023-05-02T09:16:28.898Z,496.00
2023-05-02T09:17:28.775Z,377.00
2023-05-02T09:18:28.791Z,400.00
2023-05-02T09:19:28.765Z,473.00
2023-05-02T09:20:28.773Z,529.00
2023-05-02T09:21:28.738Z,533.00
2023-05-02T09:22:29.329Z,608.00
2023-05-02T09:23:28.705Z,578.00
2023-05-02T09:24:28.724Z,563.00
2023-05-02T09:25:28.671Z,667.00
2023-05-02T09:26:29.640Z,604.00
2023-05-02T09:27:28.713Z,556.00
2023-05-02T09:28:28.757Z,527.00
2023-05-02T09:29:28.665Z,443.00
2023-05-02T09:30:28.718Z,469.00
2023-05-02T09:32:28.673Z,279.00
2023-05-02T09:33:28.619Z,297.00
2023-05-02T09:34:28.617Z,378.00
2023-05-02T09:35:28.585Z,397.00
2023-05-02T09:36:28.588Z,548.00
2023-05-02T09:37:28.588Z,595.00
2023-05-02T09:38:28.576Z,554.00
2023-05-02T09:39:28.534Z,694.00
2023-05-02T09:40:28.620Z,772.00
2023-05-02T09:41:28.691Z,774.00
2023-05-02T09:42:28.603Z,782.00
2023-05-02T09:43:28.520Z,815.00
2023-05-02T09:44:28.511Z,585.00
2023-05-02T09:45:28.506Z,649.00
2023-05-02T09:46:28.541Z,716.00
2023-05-02T09:47:28.504Z,623.00
2023-05-02T09:48:28.462Z,816.00
2023-05-02T09:49:28.429Z,919.00
2023-05-02T09:50:28.515Z,1272.00
2023-05-02T09:51:28.411Z,1572.00
2023-05-02T09:52:28.430Z,1412.00
2023-05-02T09:53:28.392Z,1336.00
2023-05-02T09:54:28.429Z,1019.00
2023-05-02T09:55:28.371Z,920.00
2023-05-02T09:56:28.407Z,1104.00
2023-05-02T09:57:28.352Z,902.00
2023-05-02T09:58:28.379Z,713.00
2023-05-02T09:59:28.346Z,1293.00
2023-05-02T10:00:28.358Z,2091.00
2023-05-02T10:01:28.405Z,1364.00
2023-05-02T10:02:28.771Z,788.00
2023-05-02T10:03:28.285Z,2918.00
2023-05-02T10:04:28.398Z,2273.00
2023-05-02T10:05:28.277Z,1523.00
2023-05-02T10:06:31.570Z,1179.00
2023-05-02T10:07:28.287Z,1070.00
2023-05-02T10:08:28.272Z,973.00
2023-05-02T10:09:28.260Z,936.00
2023-05-02T10:10:28.716Z,1135.00
2023-05-02T10:11:28.301Z,819.00
2023-05-02T10:12:28.228Z,607.00
2023-05-02T10:13:28.213Z,703.00
2023-05-02T10:14:29.507Z,687.00
2023-05-02T10:15:28.159Z,745.00
2023-05-02T10:16:28.309Z,878.00
2023-05-02T10:17:28.385Z,1263.00
2023-05-02T10:18:28.153Z,1263.00
2023-05-02T10:19:28.154Z,1119.00
2023-05-02T10:20:28.806Z,1349.00
2023-05-02T10:21:28.171Z,1299.00
2023-05-02T10:22:28.141Z,1290.00
2023-05-02T10:23:28.103Z,1077.00
2023-05-02T10:24:28.123Z,904.00
2023-05-02T10:25:28.491Z,929.00
2023-05-02T10:26:28.081Z,825.00
2023-05-02T10:27:28.058Z,618.00
2023-05-02T10:28:28.087Z,496.00
2023-05-02T10:29:28.025Z,432.00
2023-05-02T10:30:28.068Z,492.00
2023-05-02T10:31:28.085Z,636.00
2023-05-02T10:32:28.079Z,762.00
2023-05-02T10:33:27.981Z,574.00
2023-05-02T10:34:27.995Z,2017.00
2023-05-02T10:35:27.956Z,1284.00
2023-05-02T10:36:28.004Z,1152.00
2023-05-02T10:37:28.029Z,1147.00
2023-05-02T10:38:27.981Z,1129.00
2023-05-02T10:39:27.936Z,1199.00
2023-05-02T10:40:27.986Z,1064.00
2023-05-02T10:41:27.922Z,931.00
2023-05-02T10:42:27.926Z,850.00
2023-05-02T10:43:27.907Z,777.00
2023-05-02T10:44:28.362Z,1329.00
2023-05-02T10:45:27.946Z,1147.00
2023-05-02T10:46:27.900Z,875.00
2023-05-02T10:47:27.903Z,715.00
2023-05-02T10:48:27.910Z,645.00
2023-05-02T10:49:27.815Z,675.00
2023-05-02T10:50:28.230Z,694.00
2023-05-02T10:51:27.854Z,814.00
2023-05-02T10:52:28.044Z,877.00
2023-05-02T10:53:27.830Z,881.00
2023-05-02T10:54:27.822Z,792.00
2023-05-02T10:55:27.780Z,747.00
2023-05-02T10:56:29.273Z,751.00
2023-05-02T10:57:27.749Z,716.00
2023-05-02T10:58:27.772Z,723.00
2023-05-02T10:59:27.701Z,689.00
2023-05-02T11:00:27.733Z,637.00
2023-05-02T11:01:27.690Z,570.00
2023-05-02T11:02:27.744Z,586.00
2023-05-02T11:03:27.716Z,635.00
2023-05-02T11:04:27.677Z,665.00
2023-05-02T11:05:27.644Z,594.00
2023-05-02T11:06:27.768Z,587.00
2023-05-02T11:07:27.645Z,542.00
2023-05-02T11:08:27.634Z,480.00
2023-05-02T11:09:27.624Z,456.00
2023-05-02T11:10:27.656Z,445.00
2023-05-02T11:11:27.592Z,405.00
2023-05-02T11:12:27.603Z,356.00
2023-05-02T11:13:27.587Z,330.00
2023-05-02T11:14:27.583Z,330.00
2023-05-02T11:15:27.537Z,321.00
2023-05-02T11:16:27.634Z,314.00
2023-05-02T11:17:27.539Z,372.00
2023-05-02T11:18:27.576Z,487.00
2023-05-02T11:19:29.211Z,564.00
2023-05-02T11:20:27.523Z,611.00
2023-05-02T11:21:27.497Z,539.00
2023-05-02T11:22:27.496Z,515.00
2023-05-02T11:23:27.527Z,553.00
2023-05-02T11:24:27.474Z,543.00
2023-05-02T11:25:28.641Z,545.00
2023-05-02T11:26:27.455Z,514.00
2023-05-02T11:27:27.451Z,491.00
2023-05-02T11:28:27.422Z,454.00
2023-05-02T11:29:27.415Z,428.00
2023-05-02T11:30:27.406Z,437.00
2023-05-02T11:31:27.457Z,449.00
2023-05-02T11:32:27.584Z,469.00
2023-05-02T11:33:27.345Z,516.00
2023-05-02T11:34:27.364Z,621.00
2023-05-02T11:35:27.366Z,714.00
2023-05-02T11:36:27.388Z,664.00
2023-05-02T11:37:28.736Z,645.00
2023-05-02T11:38:27.350Z,647.00
2023-05-02T11:39:27.308Z,608.00
2023-05-02T11:40:27.305Z,556.00
2023-05-02T11:41:27.285Z,597.00
2023-05-02T11:42:27.279Z,673.00
2023-05-02T11:43:28.235Z,668.00
2023-05-02T11:44:27.248Z,631.00
2023-05-02T11:45:27.224Z,590.00
2023-05-02T11:46:27.326Z,601.00
2023-05-02T11:47:27.236Z,589.00
2023-05-02T11:48:27.238Z,606.00
2023-05-02T11:49:34.683Z,619.00
2023-05-02T11:50:27.209Z,558.00
2023-05-02T11:51:27.207Z,493.00
2023-05-02T11:52:27.175Z,500.00
2023-05-02T11:53:27.266Z,544.00
2023-05-02T11:54:27.171Z,582.00
2023-05-02T11:55:27.125Z,527.00
2023-05-02T11:56:27.179Z,509.00
2023-05-02T11:57:27.106Z,557.00
2023-05-02T11:58:27.132Z,621.00
2023-05-02T11:59:27.115Z,584.00
2023-05-02T12:00:27.132Z,504.00
2023-05-02T12:01:27.066Z,451.00
2023-05-02T12:02:27.160Z,467.00
2023-05-02T12:03:27.177Z,522.00
2023-05-02T12:04:27.102Z,527.00
2023-05-02T12:05:27.062Z,526.00
2023-05-02T12:06:27.084Z,591.00
2023-05-02T12:07:27.000Z,700.00
2023-05-02T12:08:27.055Z,701.00
2023-05-02T12:09:27.040Z,711.00
2023-05-02T12:10:27.004Z,650.00
2023-05-02T12:11:26.983Z,669.00
2023-05-02T12:12:27.475Z,667.00
2023-05-02T12:13:26.940Z,743.00
2023-05-02T12:14:26.960Z,740.00
2023-05-02T12:15:26.950Z,832.00
2023-05-02T12:16:26.960Z,881.00
2023-05-02T12:17:26.942Z,1029.00
2023-05-02T12:18:26.941Z,919.00
2023-05-02T12:19:26.879Z,826.00
2023-05-02T12:20:26.896Z,936.00
2023-05-02T12:21:26.912Z,988.00
2023-05-02T12:22:26.929Z,889.00
2023-05-02T12:23:26.878Z,780.00
2023-05-02T12:24:26.858Z,721.00
2023-05-02T12:25:26.845Z,699.00
2023-05-02T12:26:26.822Z,633.00
2023-05-02T12:27:26.812Z,561.00
2023-05-02T12:28:26.797Z,604.00
2023-05-02T12:29:26.820Z,790.00
2023-05-02T12:30:26.799Z,907.00
2023-05-02T12:31:33.595Z,1048.00
2023-05-02T12:32:27.632Z,1023.00
2023-05-02T12:33:26.769Z,1158.00
2023-05-02T12:34:26.774Z,1283.00
2023-05-02T12:35:26.751Z,1241.00
2023-05-02T12:36:26.695Z,866.00
2023-05-02T12:37:26.721Z,2982.00
2023-05-02T12:38:26.686Z,1608.00
2023-05-02T12:39:26.709Z,1258.00
2023-05-02T12:40:26.668Z,949.00
2023-05-02T12:41:26.680Z,782.00
2023-05-02T12:42:26.636Z,659.00
2023-05-02T12:43:26.672Z,634.00
2023-05-02T12:44:26.632Z,598.00
2023-05-02T12:45:26.640Z,591.00
2023-05-02T12:46:26.660Z,537.00